AEN3LC EDDM-EDDH
Flight info
| Callsign | AEN3LC |
|---|---|
| Flight time | N/A |
| Altitude | 36000 |
| Route | INPUD2N INPUD Y102 UPALA M726 NARUS DCT ABGUS DCT DIRBO T902 RARUP RARUP3S |
| Aircraft | A320/M-SDE3FGHIRWY/LB1 |
Departure
| Time | N/A |
|---|---|
| Airport | Munich Airport (EDDM) |
Arrival
| Time | 2026-04-20 07:14 |
|---|---|
| Airport | Hamburg Helmut Schmidt Airport (EDDH) |
| Time | Latitude | Longitude | Altitude | Speed | Heading |
|---|---|---|---|---|---|
| 2026-04-20 06:17 | 49.02132 | 11.33529 | 25539 ft | 381 kts | 333° |
| 2026-04-20 06:18 | 49.04618 | 11.32068 | 25943 ft | 383 kts | 334° |
| 2026-04-20 06:18 | 49.07114 | 11.30601 | 26339 ft | 385 kts | 334° |
| 2026-04-20 06:18 | 49.09626 | 11.29125 | 26731 ft | 388 kts | 334° |
| 2026-04-20 06:18 | 49.12155 | 11.27635 | 27118 ft | 391 kts | 334° |
| 2026-04-20 06:19 | 49.14699 | 11.26134 | 27500 ft | 393 kts | 334° |
| 2026-04-20 06:19 | 49.17262 | 11.24619 | 27880 ft | 396 kts | 334° |
| 2026-04-20 06:19 | 49.19832 | 11.23186 | 28249 ft | 401 kts | 339° |
| 2026-04-20 06:19 | 49.22588 | 11.22320 | 28603 ft | 410 kts | 348° |
| 2026-04-20 06:20 | 49.25476 | 11.22157 | 28957 ft | 418 kts | 355° |
| 2026-04-20 06:20 | 49.28395 | 11.22196 | 29304 ft | 421 kts | 355° |
| 2026-04-20 06:20 | 49.31332 | 11.22228 | 29644 ft | 423 kts | 355° |
| 2026-04-20 06:20 | 49.34286 | 11.22252 | 29976 ft | 426 kts | 355° |
| 2026-04-20 06:21 | 49.37258 | 11.22273 | 30275 ft | 428 kts | 355° |
| 2026-04-20 06:21 | 49.40246 | 11.22296 | 30539 ft | 430 kts | 355° |
| 2026-04-20 06:21 | 49.43250 | 11.22319 | 30794 ft | 433 kts | 355° |
| 2026-04-20 06:21 | 49.46234 | 11.22342 | 31046 ft | 435 kts | 355° |
| 2026-04-20 06:22 | 49.49270 | 11.22365 | 31293 ft | 437 kts | 355° |
| 2026-04-20 06:22 | 49.52319 | 11.22389 | 31587 ft | 438 kts | 355° |
| 2026-04-20 06:22 | 49.55369 | 11.22412 | 31940 ft | 438 kts | 355° |
| 2026-04-20 06:22 | 49.58409 | 11.22430 | 32299 ft | 437 kts | 355° |
| 2026-04-20 06:23 | 49.61454 | 11.22442 | 32649 ft | 437 kts | 355° |
| 2026-04-20 06:23 | 49.64499 | 11.22450 | 32995 ft | 437 kts | 355° |
| 2026-04-20 06:23 | 49.67536 | 11.22456 | 33344 ft | 436 kts | 355° |
| 2026-04-20 06:23 | 49.70573 | 11.22459 | 33689 ft | 436 kts | 355° |
| 2026-04-20 06:24 | 49.73610 | 11.22460 | 34039 ft | 436 kts | 355° |
| 2026-04-20 06:24 | 49.76647 | 11.22465 | 34342 ft | 436 kts | 355° |
| 2026-04-20 06:24 | 49.79680 | 11.22474 | 34619 ft | 436 kts | 355° |
| 2026-04-20 06:24 | 49.82677 | 11.22487 | 34873 ft | 436 kts | 355° |
| 2026-04-20 06:25 | 49.85719 | 11.22506 | 35122 ft | 437 kts | 356° |
| 2026-04-20 06:25 | 49.88766 | 11.22529 | 35366 ft | 437 kts | 356° |
| 2026-04-20 06:25 | 49.91804 | 11.22550 | 35619 ft | 437 kts | 356° |
| 2026-04-20 06:25 | 49.94858 | 11.22569 | 35864 ft | 438 kts | 356° |
| 2026-04-20 06:26 | 49.97908 | 11.22590 | 36045 ft | 439 kts | 356° |
| 2026-04-20 06:26 | 50.00960 | 11.22611 | 36102 ft | 438 kts | 356° |
| 2026-04-20 06:26 | 50.07000 | 11.22650 | 36099 ft | 436 kts | 356° |
| 2026-04-20 06:27 | 50.13087 | 11.22680 | 36094 ft | 437 kts | 356° |
| 2026-04-20 06:27 | 50.19180 | 11.22711 | 36097 ft | 437 kts | 356° |
| 2026-04-20 06:28 | 50.25263 | 11.22748 | 36097 ft | 437 kts | 356° |
| 2026-04-20 06:28 | 50.31352 | 11.22779 | 36091 ft | 437 kts | 356° |
| 2026-04-20 06:29 | 50.37386 | 11.22625 | 36093 ft | 435 kts | 351° |
| 2026-04-20 06:29 | 50.43415 | 11.21713 | 36087 ft | 435 kts | 351° |
| 2026-04-20 06:30 | 50.49444 | 11.20798 | 36087 ft | 435 kts | 351° |
| 2026-04-20 06:30 | 50.55474 | 11.19884 | 36093 ft | 435 kts | 351° |
| 2026-04-20 06:31 | 50.61507 | 11.18968 | 36087 ft | 436 kts | 352° |
| 2026-04-20 06:31 | 50.67554 | 11.18051 | 36084 ft | 436 kts | 352° |
| 2026-04-20 06:32 | 50.73618 | 11.17333 | 36082 ft | 437 kts | 354° |
| 2026-04-20 06:32 | 50.79698 | 11.16768 | 36079 ft | 438 kts | 354° |
| 2026-04-20 06:33 | 50.85738 | 11.16186 | 36078 ft | 438 kts | 354° |
| 2026-04-20 06:33 | 50.91820 | 11.15557 | 36076 ft | 438 kts | 354° |
| 2026-04-20 06:34 | 50.97910 | 11.14901 | 36079 ft | 438 kts | 354° |
| 2026-04-20 06:35 | 51.07050 | 11.13937 | 36075 ft | 438 kts | 354° |
| 2026-04-20 06:35 | 51.13142 | 11.13295 | 36074 ft | 439 kts | 354° |
| 2026-04-20 06:36 | 51.19235 | 11.12648 | 36073 ft | 439 kts | 354° |
| 2026-04-20 06:36 | 51.25295 | 11.12008 | 36068 ft | 439 kts | 354° |
| 2026-04-20 06:37 | 51.31399 | 11.11357 | 36064 ft | 439 kts | 354° |
| 2026-04-20 06:37 | 51.37500 | 11.10694 | 36064 ft | 439 kts | 354° |
| 2026-04-20 06:38 | 51.43599 | 11.10023 | 36060 ft | 439 kts | 354° |
| 2026-04-20 06:38 | 51.49694 | 11.09369 | 36054 ft | 439 kts | 354° |
| 2026-04-20 06:39 | 51.55799 | 11.08703 | 36055 ft | 439 kts | 354° |
| 2026-04-20 06:39 | 51.61858 | 11.08041 | 36057 ft | 440 kts | 354° |
| 2026-04-20 06:40 | 51.67963 | 11.07374 | 36054 ft | 439 kts | 353° |
| 2026-04-20 06:40 | 51.73891 | 11.05135 | 36057 ft | 437 kts | 343° |
| 2026-04-20 06:41 | 51.79752 | 11.02483 | 36017 ft | 438 kts | 343° |
| 2026-04-20 06:41 | 51.82688 | 11.01142 | 35767 ft | 437 kts | 343° |
| 2026-04-20 06:41 | 51.85609 | 10.99810 | 35544 ft | 437 kts | 343° |
| 2026-04-20 06:41 | 51.88501 | 10.98491 | 34858 ft | 439 kts | 343° |
| 2026-04-20 06:42 | 51.91456 | 10.97139 | 34011 ft | 444 kts | 342° |
| 2026-04-20 06:42 | 51.94451 | 10.95764 | 33083 ft | 447 kts | 343° |
| 2026-04-20 06:42 | 51.97419 | 10.94400 | 32593 ft | 440 kts | 344° |
| 2026-04-20 06:42 | 52.00353 | 10.93049 | 32003 ft | 436 kts | 345° |
| 2026-04-20 06:43 | 52.03263 | 10.91707 | 31432 ft | 432 kts | 346° |
| 2026-04-20 06:43 | 52.06145 | 10.90379 | 30872 ft | 429 kts | 346° |
| 2026-04-20 06:43 | 52.09013 | 10.89060 | 30316 ft | 426 kts | 347° |
| 2026-04-20 06:43 | 52.11820 | 10.87763 | 29710 ft | 423 kts | 347° |
| 2026-04-20 06:44 | 52.14634 | 10.86456 | 29167 ft | 418 kts | 347° |
| 2026-04-20 06:44 | 52.17418 | 10.85163 | 28637 ft | 413 kts | 347° |
| 2026-04-20 06:44 | 52.20167 | 10.83886 | 28107 ft | 409 kts | 347° |
| 2026-04-20 06:44 | 52.22888 | 10.82625 | 27590 ft | 404 kts | 347° |
| 2026-04-20 06:45 | 52.25583 | 10.81376 | 27090 ft | 400 kts | 347° |
| 2026-04-20 06:45 | 52.28249 | 10.80137 | 26589 ft | 396 kts | 348° |
| 2026-04-20 06:45 | 52.30882 | 10.78911 | 26111 ft | 392 kts | 348° |
| 2026-04-20 06:45 | 52.33498 | 10.77692 | 25647 ft | 388 kts | 348° |
| 2026-04-20 06:46 | 52.36082 | 10.76491 | 25184 ft | 384 kts | 348° |
| 2026-04-20 06:46 | 52.38638 | 10.75298 | 24736 ft | 380 kts | 348° |
| 2026-04-20 06:46 | 52.41167 | 10.74114 | 24283 ft | 377 kts | 348° |
| 2026-04-20 06:46 | 52.43679 | 10.72935 | 23826 ft | 374 kts | 348° |
| 2026-04-20 06:47 | 52.46141 | 10.71779 | 23341 ft | 371 kts | 348° |
| 2026-04-20 06:47 | 52.48616 | 10.70614 | 22880 ft | 367 kts | 348° |
| 2026-04-20 06:47 | 52.51061 | 10.69461 | 22442 ft | 364 kts | 348° |
| 2026-04-20 06:47 | 52.53485 | 10.68320 | 21974 ft | 361 kts | 348° |
| 2026-04-20 06:48 | 52.55885 | 10.67189 | 21521 ft | 358 kts | 348° |
| 2026-04-20 06:48 | 52.58276 | 10.66060 | 21065 ft | 356 kts | 348° |
| 2026-04-20 06:48 | 52.60655 | 10.64936 | 20611 ft | 354 kts | 347° |
| 2026-04-20 06:48 | 52.63023 | 10.63815 | 20155 ft | 352 kts | 347° |
| 2026-04-20 06:49 | 52.65373 | 10.62702 | 19701 ft | 351 kts | 348° |
| 2026-04-20 06:49 | 52.67714 | 10.61599 | 19244 ft | 350 kts | 347° |
| 2026-04-20 06:49 | 52.70056 | 10.60494 | 18797 ft | 349 kts | 347° |
| 2026-04-20 06:49 | 52.72361 | 10.59400 | 18344 ft | 349 kts | 347° |
| 2026-04-20 06:50 | 52.74694 | 10.58287 | 17861 ft | 348 kts | 347° |
| 2026-04-20 06:50 | 52.77009 | 10.57182 | 17351 ft | 347 kts | 348° |
| 2026-04-20 06:50 | 52.79336 | 10.56073 | 16851 ft | 346 kts | 348° |
| 2026-04-20 06:50 | 52.81644 | 10.54969 | 16425 ft | 344 kts | 348° |
| 2026-04-20 06:51 | 52.83942 | 10.53870 | 15993 ft | 342 kts | 348° |
| 2026-04-20 06:51 | 52.86222 | 10.52778 | 15564 ft | 341 kts | 348° |
| 2026-04-20 06:51 | 52.88498 | 10.51686 | 15134 ft | 340 kts | 348° |
| 2026-04-20 06:51 | 52.90762 | 10.50601 | 14699 ft | 338 kts | 348° |
| 2026-04-20 06:52 | 52.93023 | 10.49520 | 14269 ft | 338 kts | 348° |
| 2026-04-20 06:52 | 52.95278 | 10.48441 | 13825 ft | 337 kts | 348° |
| 2026-04-20 06:52 | 52.97499 | 10.47373 | 13371 ft | 335 kts | 348° |
| 2026-04-20 06:52 | 52.99730 | 10.46298 | 12933 ft | 333 kts | 348° |
| 2026-04-20 06:53 | 53.01953 | 10.45228 | 12493 ft | 331 kts | 348° |
| 2026-04-20 06:53 | 53.04152 | 10.44165 | 12051 ft | 329 kts | 348° |
| 2026-04-20 06:53 | 53.06342 | 10.43103 | 11613 ft | 327 kts | 348° |
| 2026-04-20 06:53 | 53.08517 | 10.42049 | 11175 ft | 325 kts | 348° |
| 2026-04-20 06:54 | 53.10680 | 10.41000 | 10724 ft | 323 kts | 348° |
| 2026-04-20 06:54 | 53.12834 | 10.39954 | 10295 ft | 321 kts | 348° |
| 2026-04-20 06:54 | 53.14948 | 10.38922 | 10129 ft | 310 kts | 348° |
| 2026-04-20 06:54 | 53.16981 | 10.37925 | 10002 ft | 299 kts | 348° |
| 2026-04-20 06:55 | 53.18291 | 10.37285 | 9883 ft | 293 kts | 348° |
| 2026-04-20 06:55 | 53.20812 | 10.35667 | 9349 ft | 295 kts | 337° |
| 2026-04-20 06:55 | 53.22625 | 10.34124 | 9014 ft | 291 kts | 338° |
| 2026-04-20 06:55 | 53.24412 | 10.32607 | 8440 ft | 286 kts | 338° |
| 2026-04-20 06:56 | 53.26176 | 10.31113 | 7794 ft | 282 kts | 338° |
| 2026-04-20 06:56 | 53.27352 | 10.30116 | 7426 ft | 278 kts | 338° |
| 2026-04-20 06:56 | 53.29043 | 10.28682 | 6957 ft | 274 kts | 338° |
| 2026-04-20 06:56 | 53.30737 | 10.27249 | 6502 ft | 273 kts | 338° |
| 2026-04-20 06:57 | 53.32433 | 10.25814 | 6013 ft | 273 kts | 338° |
| 2026-04-20 06:57 | 53.34100 | 10.24396 | 5844 ft | 262 kts | 338° |
| 2026-04-20 06:57 | 53.35687 | 10.23039 | 5697 ft | 250 kts | 338° |
| 2026-04-20 06:57 | 53.37200 | 10.21746 | 5569 ft | 239 kts | 339° |
| 2026-04-20 06:58 | 53.38669 | 10.20492 | 5218 ft | 239 kts | 339° |
| 2026-04-20 06:58 | 53.40138 | 10.19244 | 4954 ft | 234 kts | 339° |
| 2026-04-20 06:58 | 53.41581 | 10.18014 | 4556 ft | 230 kts | 339° |
| 2026-04-20 06:58 | 53.42999 | 10.16802 | 4028 ft | 228 kts | 338° |
| 2026-04-20 06:59 | 53.44399 | 10.15603 | 3558 ft | 219 kts | 338° |
| 2026-04-20 06:59 | 53.45657 | 10.14513 | 3379 ft | 193 kts | 338° |
| 2026-04-20 06:59 | 53.46830 | 10.13503 | 3286 ft | 186 kts | 339° |
| 2026-04-20 06:59 | 53.47971 | 10.12526 | 3194 ft | 181 kts | 339° |
| 2026-04-20 07:00 | 53.49025 | 10.11616 | 3123 ft | 158 kts | 340° |
| 2026-04-20 07:00 | 53.49928 | 10.10831 | 2994 ft | 139 kts | 341° |
| 2026-04-20 07:00 | 53.50759 | 10.10118 | 2777 ft | 131 kts | 342° |
| 2026-04-20 07:00 | 53.51563 | 10.09435 | 2585 ft | 128 kts | 342° |
| 2026-04-20 07:01 | 53.52358 | 10.08761 | 2402 ft | 127 kts | 341° |
| 2026-04-20 07:01 | 53.53149 | 10.08090 | 2228 ft | 127 kts | 341° |
| 2026-04-20 07:01 | 53.53929 | 10.07426 | 2058 ft | 127 kts | 339° |
| 2026-04-20 07:01 | 53.54714 | 10.06757 | 1884 ft | 127 kts | 339° |
| 2026-04-20 07:02 | 53.55502 | 10.06085 | 1709 ft | 127 kts | 338° |
| 2026-04-20 07:02 | 53.56286 | 10.05410 | 1530 ft | 127 kts | 338° |
| 2026-04-20 07:02 | 53.57074 | 10.04733 | 1356 ft | 126 kts | 338° |
| 2026-04-20 07:02 | 53.57856 | 10.04062 | 1175 ft | 126 kts | 338° |
| 2026-04-20 07:03 | 53.58637 | 10.03386 | 993 ft | 128 kts | 336° |
| 2026-04-20 07:03 | 53.59419 | 10.02709 | 826 ft | 126 kts | 335° |
| 2026-04-20 07:03 | 53.60203 | 10.02040 | 673 ft | 127 kts | 336° |
| 2026-04-20 07:03 | 53.60992 | 10.01358 | 477 ft | 127 kts | 334° |
| 2026-04-20 07:04 | 53.61830 | 10.00618 | 874 ft | 137 kts | 335° |
| 2026-04-20 07:04 | 53.62665 | 9.99847 | 1516 ft | 139 kts | 335° |
| 2026-04-20 07:04 | 53.63508 | 9.99065 | 2243 ft | 137 kts | 340° |
| 2026-04-20 07:04 | 53.64359 | 9.98351 | 2969 ft | 136 kts | 342° |
| 2026-04-20 07:05 | 53.65241 | 9.97629 | 3464 ft | 151 kts | 342° |
| 2026-04-20 07:05 | 53.66258 | 9.96806 | 3820 ft | 173 kts | 342° |
| 2026-04-20 07:05 | 53.67339 | 9.95550 | 3988 ft | 210 kts | 316° |
| 2026-04-20 07:05 | 53.67941 | 9.93187 | 3995 ft | 231 kts | 280° |
| 2026-04-20 07:06 | 53.67676 | 9.90479 | 4009 ft | 242 kts | 245° |
| 2026-04-20 07:06 | 53.66800 | 9.88048 | 4012 ft | 244 kts | 236° |
| 2026-04-20 07:06 | 53.65785 | 9.85660 | 4010 ft | 254 kts | 233° |
| 2026-04-20 07:06 | 53.64622 | 9.83453 | 4011 ft | 256 kts | 225° |
| 2026-04-20 07:07 | 53.63422 | 9.81236 | 4012 ft | 256 kts | 229° |
| 2026-04-20 07:07 | 53.62250 | 9.78978 | 4033 ft | 256 kts | 229° |
| 2026-04-20 07:07 | 53.61076 | 9.76720 | 4039 ft | 256 kts | 230° |
| 2026-04-20 07:07 | 53.59901 | 9.74476 | 4036 ft | 254 kts | 229° |
| 2026-04-20 07:08 | 53.58743 | 9.72268 | 3911 ft | 247 kts | 229° |
| 2026-04-20 07:08 | 53.57411 | 9.70588 | 3772 ft | 236 kts | 197° |
| 2026-04-20 07:08 | 53.55860 | 9.70344 | 3648 ft | 217 kts | 160° |
| 2026-04-20 07:08 | 53.54531 | 9.71338 | 3456 ft | 203 kts | 136° |
| 2026-04-20 07:09 | 53.53589 | 9.72965 | 3223 ft | 188 kts | 114° |
| 2026-04-20 07:09 | 53.53098 | 9.74817 | 3138 ft | 160 kts | 96° |
| 2026-04-20 07:09 | 53.52970 | 9.76498 | 3043 ft | 135 kts | 81° |
| 2026-04-20 07:09 | 53.53096 | 9.78004 | 2927 ft | 127 kts | 67° |
| 2026-04-20 07:10 | 53.53432 | 9.79350 | 2784 ft | 127 kts | 54° |
| 2026-04-20 07:10 | 53.53959 | 9.80534 | 2632 ft | 127 kts | 46° |
| 2026-04-20 07:10 | 53.54532 | 9.81683 | 2464 ft | 128 kts | 45° |
| 2026-04-20 07:10 | 53.55103 | 9.82830 | 2283 ft | 128 kts | 44° |
| 2026-04-20 07:11 | 53.55676 | 9.83980 | 2109 ft | 128 kts | 45° |
| 2026-04-20 07:11 | 53.56246 | 9.85127 | 1928 ft | 127 kts | 44° |
| 2026-04-20 07:11 | 53.56812 | 9.86265 | 1747 ft | 127 kts | 45° |
| 2026-04-20 07:11 | 53.57377 | 9.87402 | 1567 ft | 126 kts | 44° |
| 2026-04-20 07:12 | 53.57940 | 9.88535 | 1392 ft | 126 kts | 44° |
| 2026-04-20 07:12 | 53.58505 | 9.89674 | 1213 ft | 127 kts | 45° |
| 2026-04-20 07:12 | 53.59067 | 9.90807 | 993 ft | 126 kts | 45° |
| 2026-04-20 07:12 | 53.59627 | 9.91936 | 823 ft | 125 kts | 45° |
| 2026-04-20 07:13 | 53.60189 | 9.93070 | 628 ft | 125 kts | 45° |
| 2026-04-20 07:13 | 53.60747 | 9.94194 | 471 ft | 128 kts | 45° |
| 2026-04-20 07:13 | 53.61316 | 9.95336 | 307 ft | 127 kts | 47° |
| 2026-04-20 07:13 | 53.61871 | 9.96458 | 120 ft | 125 kts | 47° |
| 2026-04-20 07:14 | 53.62415 | 9.97530 | 42 ft | 106 kts | 50° |
| 2026-04-20 07:14 | 53.62776 | 9.98285 | 43 ft | 62 kts | 53° |
| 2026-04-20 07:14 | 53.62989 | 9.98722 | 45 ft | 40 kts | 50° |
| 2026-04-20 07:14 | 53.63081 | 9.98976 | 46 ft | 22 kts | 74° |
| 2026-04-20 07:15 | 53.63087 | 9.99232 | 47 ft | 11 kts | 94° |
| 2026-04-20 07:15 | 53.63087 | 9.99238 | 47 ft | 0 kts | 94° |
| 2026-04-20 07:15 | 53.63087 | 9.99239 | 47 ft | 1 kts | 94° |
| 2026-04-20 07:15 | 53.63087 | 9.99335 | 47 ft | 15 kts | 81° |
| 2026-04-20 07:16 | 53.63138 | 9.99499 | 46 ft | 17 kts | 53° |
| 2026-04-20 07:16 | 53.63219 | 9.99666 | 48 ft | 19 kts | 49° |
| 2026-04-20 07:16 | 53.63315 | 9.99835 | 48 ft | 21 kts | 50° |
| 2026-04-20 07:16 | 53.63404 | 10.00023 | 48 ft | 19 kts | 54° |
| 2026-04-20 07:17 | 53.63442 | 10.00163 | 48 ft | 9 kts | 69° |
| 2026-04-20 07:17 | 53.63448 | 10.00261 | 48 ft | 8 kts | 86° |
| 2026-04-20 07:17 | 53.63450 | 10.00308 | 48 ft | 1 kts | 86° |
| 2026-04-20 07:17 | 53.63450 | 10.00315 | 48 ft | 0 kts | 86° |